createdAt,value
2022-08-17T00:00:55.852Z,100828.66
2022-08-17T00:03:29.260Z,100830.34
2022-08-17T00:06:03.930Z,100829.69
2022-08-17T00:08:37.300Z,100822.28
2022-08-17T00:11:11.116Z,100820.41
2022-08-17T00:13:46.209Z,100819.75
2022-08-17T00:16:19.768Z,100820.81
2022-08-17T00:19:01.685Z,100819.75
2022-08-17T00:22:31.004Z,100814.25
2022-08-17T00:24:22.564Z,100806.69
2022-08-17T00:26:52.304Z,100802.44
2022-08-17T00:29:19.564Z,100802.44
2022-08-17T00:31:46.309Z,100802.44
2022-08-17T00:34:12.739Z,100794.38
2022-08-17T00:36:39.196Z,100801.59
2022-08-17T00:39:05.699Z,100800.75
2022-08-17T00:41:32.230Z,100799.88
2022-08-17T00:44:03.436Z,100794.38
2022-08-17T00:46:33.740Z,100794.38
2022-08-17T00:49:00.324Z,100799.03
2022-08-17T00:51:31.897Z,100792.69
2022-08-17T00:54:06.347Z,100791.63
2022-08-17T00:56:37.773Z,100788.88
2022-08-17T00:59:06.600Z,100787.19
2022-08-17T01:01:33.618Z,100791.00
2022-08-17T01:04:02.100Z,100788.03
2022-08-17T01:06:30.181Z,100780.84
2022-08-17T01:08:59.471Z,100790.16
2022-08-17T01:11:27.472Z,100782.09
2022-08-17T01:13:53.933Z,100781.09
2022-08-17T01:16:24.792Z,100784.66
2022-08-17T01:18:54.894Z,100778.53
2022-08-17T01:21:46.815Z,100782.31
2022-08-17T01:24:13.539Z,100774.94
2022-08-17T01:26:41.956Z,100777.69
2022-08-17T01:29:09.193Z,100776.84
2022-08-17T01:31:52.659Z,100771.53
2022-08-17T01:34:20.230Z,100770.69
2022-08-17T01:36:49.144Z,100760.53
2022-08-17T01:39:27.031Z,100758.84
2022-08-17T01:41:58.616Z,100760.53
2022-08-17T01:44:27.009Z,100752.28
2022-08-17T01:46:54.147Z,100751.44
2022-08-17T01:49:20.743Z,100742.38
2022-08-17T01:51:47.425Z,100744.47
2022-08-17T01:54:18.557Z,100738.97
2022-08-17T01:56:49.463Z,100735.19
2022-08-17T01:59:18.234Z,100740.88
2022-08-17T02:01:45.790Z,100746.19
2022-08-17T02:04:12.856Z,100749.97
2022-08-17T02:06:53.138Z,100744.47
2022-08-17T02:09:23.343Z,100749.97
2022-08-17T02:11:53.309Z,100752.91
2022-08-17T02:14:20.817Z,100751.69
2022-08-17T02:16:47.285Z,100747.63
2022-08-17T02:19:15.980Z,100743.00
2022-08-17T02:21:47.047Z,100744.88
2022-08-17T02:25:01.018Z,100746.59
2022-08-17T02:27:11.437Z,100744.69
2022-08-17T02:29:38.091Z,100740.44
2022-08-17T02:32:05.198Z,100737.91
2022-08-17T02:34:32.629Z,100739.81
2022-08-17T02:36:59.215Z,100744.25
2022-08-17T02:39:25.718Z,100742.56
2022-08-17T02:42:01.509Z,100736.41
2022-08-17T02:44:35.446Z,100744.25
2022-08-17T02:47:08.515Z,100740.66
2022-08-17T02:49:35.469Z,100735.34
2022-08-17T02:52:07.053Z,100730.91
2022-08-17T02:54:40.471Z,100729.00
2022-08-17T02:57:09.682Z,100722.88
2022-08-17T02:59:36.282Z,100718.88
2022-08-17T03:02:04.727Z,100721.00
2022-08-17T03:04:31.299Z,100722.69
2022-08-17T03:07:01.790Z,100710.84
2022-08-17T03:09:28.288Z,100707.03
2022-08-17T03:11:55.885Z,100705.53
2022-08-17T03:14:26.200Z,100711.03
2022-08-17T03:16:53.710Z,100717.38
2022-08-17T03:19:20.755Z,100718.25
2022-08-17T03:21:47.288Z,100711.03
2022-08-17T03:24:21.938Z,100722.03
2022-08-17T03:26:55.589Z,100717.56
2022-08-17T03:29:22.069Z,100721.16
2022-08-17T03:31:49.397Z,100717.78
2022-08-17T03:34:17.077Z,100719.28
2022-08-17T03:36:43.869Z,100721.38
2022-08-17T03:39:10.646Z,100724.97
2022-08-17T03:41:38.799Z,100725.81
2022-08-17T03:44:05.322Z,100725.16
2022-08-17T03:46:50.560Z,100724.13
2022-08-17T03:49:35.803Z,100719.88
2022-08-17T03:52:20.811Z,100720.09
2022-08-17T03:55:05.886Z,100723.88
2022-08-17T03:57:32.482Z,100717.34
2022-08-17T03:59:59.769Z,100728.31
2022-08-17T04:02:32.844Z,100722.84
2022-08-17T04:05:00.242Z,100732.09
2022-08-17T04:07:29.469Z,100732.75
2022-08-17T04:09:57.903Z,100727.44
2022-08-17T04:12:30.699Z,100732.94
2022-08-17T04:14:57.953Z,100733.81
2022-08-17T04:17:27.426Z,100731.69
2022-08-17T04:19:55.416Z,100734.66
2022-08-17T04:22:30.647Z,100741.19
2022-08-17T04:24:58.933Z,100742.06
2022-08-17T04:27:25.445Z,100733.81
2022-08-17T04:29:54.744Z,100737.59
2022-08-17T04:32:58.550Z,100740.34
2022-08-17T04:35:10.162Z,100740.16
2022-08-17T04:37:36.678Z,100732.94
2022-08-17T04:40:22.729Z,100733.16
2022-08-17T04:43:18.660Z,100730.41
2022-08-17T04:45:56.281Z,100724.09
2022-08-17T04:48:33.357Z,100726.19
2022-08-17T04:51:06.163Z,100732.72
2022-08-17T04:53:32.714Z,100730.16
2022-08-17T04:55:59.257Z,100727.41
2022-08-17T04:58:25.925Z,100731.88
2022-08-17T05:00:52.772Z,100735.47
2022-08-17T05:03:22.341Z,100749.81
2022-08-17T05:05:49.792Z,100749.00
2022-08-17T05:08:18.992Z,100758.72
2022-08-17T05:10:46.943Z,100766.78
2022-08-17T05:13:25.882Z,100797.00
2022-08-17T05:15:55.595Z,100816.41
2022-08-17T05:18:22.300Z,100830.75
2022-08-17T05:20:51.080Z,100819.94
2022-08-17T05:23:20.965Z,100790.59
2022-08-17T05:25:50.454Z,100786.16
2022-08-17T05:28:19.654Z,100809.81
2022-08-17T05:30:50.871Z,100791.25
2022-08-17T05:33:23.715Z,100826.53
2022-08-17T05:35:52.076Z,100800.13
2022-08-17T05:38:21.710Z,100813.22
2022-08-17T05:40:48.976Z,100789.56
2022-08-17T05:43:27.608Z,100810.25
2022-08-17T05:46:12.860Z,100827.38
2022-08-17T05:48:51.500Z,100793.59
2022-08-17T05:51:37.242Z,100812.81
2022-08-17T05:54:29.030Z,100788.94
2022-08-17T05:57:15.388Z,100802.66
2022-08-17T06:00:20.210Z,100787.25
2022-08-17T06:03:11.936Z,100794.25
2022-08-17T06:06:05.154Z,100784.94
2022-08-17T06:08:34.919Z,100792.34
2022-08-17T06:11:35.330Z,100787.03
2022-08-17T06:14:15.985Z,100786.00
2022-08-17T06:16:46.207Z,100784.09
2022-08-17T06:19:32.038Z,100784.09
2022-08-17T06:21:59.598Z,100790.44
2022-08-17T06:24:37.718Z,100782.38
2022-08-17T06:27:19.917Z,100798.84
2022-08-17T06:29:59.703Z,100791.50
2022-08-17T06:32:26.595Z,100797.63
2022-08-17T06:34:53.532Z,100802.25
2022-08-17T06:37:27.267Z,100803.31
2022-08-17T06:40:03.650Z,100795.09
2022-08-17T06:43:15.269Z,100800.56
2022-08-17T07:00:34.261Z,100794.25
2022-08-17T07:08:35.586Z,100809.00
2022-08-17T07:12:42.183Z,100817.25
2022-08-17T07:20:33.718Z,100832.69
2022-08-17T07:23:11.616Z,100841.78
2022-08-17T07:26:10.075Z,100843.66
2022-08-17T07:28:40.285Z,100847.03
2022-08-17T07:31:07.596Z,100852.53
2022-08-17T07:33:36.803Z,100847.44
2022-08-17T07:36:06.053Z,100849.16
2022-08-17T07:38:35.447Z,100840.06
2022-08-17T07:41:12.514Z,100839.22
2022-08-17T07:43:41.994Z,100842.78
2022-08-17T07:47:03.809Z,100841.94
2022-08-17T07:49:47.886Z,100841.94
2022-08-17T07:52:50.875Z,100856.09
2022-08-17T07:55:31.039Z,100854.84
2022-08-17T07:57:58.904Z,100855.69
2022-08-17T08:00:31.678Z,100855.69
2022-08-17T08:03:26.210Z,100866.88
2022-08-17T08:06:01.282Z,100864.78
2022-08-17T08:08:43.571Z,100881.25
2022-08-17T08:11:15.241Z,100893.09
2022-08-17T08:13:45.471Z,100914.19
2022-08-17T08:16:26.376Z,100951.34
2022-08-17T08:18:57.722Z,100963.56
2022-08-17T08:21:47.507Z,100953.00
2022-08-17T08:24:35.437Z,100875.47
2022-08-17T08:27:21.132Z,100826.06
2022-08-17T08:29:53.930Z,100770.91
2022-08-17T08:32:31.238Z,100760.78
2022-08-17T08:35:06.668Z,100781.06
2022-08-17T08:37:43.172Z,100817.81
2022-08-17T08:40:34.812Z,100832.16
2022-08-17T08:43:07.209Z,100838.53
2022-08-17T08:45:46.843Z,100848.47
2022-08-17T08:48:52.851Z,100857.75
2022-08-17T08:51:25.924Z,100863.69
2022-08-17T08:54:05.863Z,100869.19
2022-08-17T08:57:22.239Z,100848.91
2022-08-17T08:59:58.557Z,100836.03
2022-08-17T09:02:53.868Z,100853.75
2022-08-17T09:05:58.084Z,100838.97
2022-08-17T09:08:33.737Z,100838.97
2022-08-17T09:11:26.545Z,100843.63
2022-08-17T09:14:21.591Z,100844.88
2022-08-17T09:17:16.492Z,100859.22
2022-08-17T09:19:48.278Z,100865.16
2022-08-17T09:22:32.323Z,100873.63
2022-08-17T09:25:04.087Z,100879.78
2022-08-17T09:27:37.606Z,100886.28
2022-08-17T09:30:10.824Z,100886.50
2022-08-17T09:32:55.167Z,100889.66
2022-08-17T09:35:40.095Z,100897.69
2022-08-17T09:38:34.290Z,100899.41
2022-08-17T09:41:19.839Z,100893.91
2022-08-17T09:44:22.685Z,100901.94
2022-08-17T09:47:03.974Z,100915.03
2022-08-17T09:49:33.457Z,100909.09
2022-08-17T09:52:08.041Z,100918.00
2022-08-17T09:54:39.484Z,100929.84
2022-08-17T09:57:32.340Z,100941.22
2022-08-17T10:00:11.908Z,100951.56
2022-08-17T10:02:58.701Z,100964.03
2022-08-17T10:05:43.157Z,100961.22
2022-08-17T10:08:40.355Z,100966.09
2022-08-17T10:11:48.146Z,100957.63
2022-08-17T10:14:55.071Z,100961.88
2022-08-17T10:17:30.629Z,100962.72
2022-08-17T10:20:09.215Z,100967.78
2022-08-17T10:23:07.692Z,100960.59
2022-08-17T10:25:57.048Z,100959.81
2022-08-17T10:28:30.385Z,100958.75
2022-08-17T10:31:30.839Z,100960.44
2022-08-17T10:34:12.199Z,100953.25
2022-08-17T10:36:55.033Z,100948.81
2022-08-17T10:39:24.348Z,100966.16
2022-08-17T10:41:56.528Z,100963.19
2022-08-17T10:44:44.220Z,100962.34
2022-08-17T10:47:19.768Z,100953.25
2022-08-17T10:49:54.084Z,100956.66
2022-08-17T10:52:21.812Z,100948.44
2022-08-17T10:54:51.216Z,100943.13
2022-08-17T10:57:27.083Z,100944.19
2022-08-17T11:00:00.257Z,100936.78
2022-08-17T11:02:40.638Z,100926.84
2022-08-17T11:05:29.085Z,100928.53
2022-08-17T11:07:58.586Z,100925.59
2022-08-17T11:11:09.951Z,100929.38
2022-08-17T11:13:55.668Z,100930.91
2022-08-17T11:17:00.996Z,100930.22
2022-08-17T11:20:05.773Z,100939.53
2022-08-17T11:23:10.053Z,100937.63
2022-08-17T11:25:46.967Z,100932.78
2022-08-17T11:28:23.818Z,100935.72
2022-08-17T11:31:07.583Z,100937.44
2022-08-17T11:33:34.050Z,100949.28
2022-08-17T11:36:34.421Z,100953.91
2022-08-17T11:39:13.062Z,100950.13
2022-08-17T11:41:55.185Z,100956.66
2022-08-17T11:44:51.527Z,100961.28
2022-08-17T11:48:09.458Z,100953.03
2022-08-17T11:51:18.571Z,100955.59
2022-08-17T11:53:45.755Z,100959.19
2022-08-17T11:56:33.205Z,100964.03
2022-08-17T11:59:22.932Z,100966.59
2022-08-17T12:01:49.480Z,100972.94
2022-08-17T12:04:34.242Z,100972.09
2022-08-17T12:07:10.768Z,100988.34
2022-08-17T12:09:45.561Z,100994.72
2022-08-17T12:12:19.447Z,101002.97
2022-08-17T12:17:42.748Z,101004.66
2022-08-17T12:20:30.866Z,101006.72
2022-08-17T12:23:03.496Z,101013.94
2022-08-17T12:25:56.598Z,101012.22
2022-08-17T12:28:28.852Z,101002.28
2022-08-17T12:31:00.438Z,101012.63
2022-08-17T12:33:28.874Z,101011.59
2022-08-17T12:35:59.688Z,101005.03
2022-08-17T12:38:33.193Z,101004.19
2022-08-17T12:41:21.814Z,100992.38
2022-08-17T12:44:02.164Z,100995.28
2022-08-17T12:46:33.467Z,100994.25
2022-08-17T12:49:14.468Z,100986.00
2022-08-17T12:51:46.512Z,100983.91
2022-08-17T12:54:25.952Z,100986.00
2022-08-17T12:56:52.996Z,100986.88
2022-08-17T12:59:29.763Z,100987.72
2022-08-17T13:01:57.380Z,100988.56
2022-08-17T13:04:24.137Z,100983.06
2022-08-17T13:06:59.583Z,100976.72
2022-08-17T13:09:35.476Z,100980.50
2022-08-17T13:12:02.927Z,100983.06
2022-08-17T13:14:31.628Z,100986.88
2022-08-17T13:17:02.393Z,100993.22
2022-08-17T13:19:40.817Z,100992.38
2022-08-17T13:22:11.311Z,100983.91
2022-08-17T13:24:38.723Z,100986.66
2022-08-17T13:27:09.843Z,100989.41
2022-08-17T13:29:45.154Z,100992.53
2022-08-17T13:32:43.621Z,100995.28
2022-08-17T13:35:39.882Z,100995.28
2022-08-17T13:38:34.712Z,100995.13
2022-08-17T13:41:01.326Z,100989.41
2022-08-17T13:43:39.621Z,100990.66
2022-08-17T13:46:31.162Z,100991.72
2022-08-17T13:49:01.324Z,100980.50
2022-08-17T13:51:43.804Z,100975.44
2022-08-17T13:54:37.521Z,100970.56
2022-08-17T13:57:07.328Z,100964.91
2022-08-17T14:00:30.619Z,100964.91
2022-08-17T14:03:01.951Z,100966.59
2022-08-17T14:05:28.958Z,100966.59
2022-08-17T14:07:58.424Z,100983.91
2022-08-17T14:10:25.560Z,100975.88
2022-08-17T14:12:52.874Z,100972.94
2022-08-17T14:15:22.430Z,100976.53
2022-08-17T14:17:49.659Z,100969.72
2022-08-17T14:20:19.934Z,100969.53
2022-08-17T14:22:53.439Z,100979.47
2022-08-17T14:25:23.939Z,100982.22
2022-08-17T14:27:52.808Z,100972.09
2022-08-17T14:30:23.101Z,100964.91
2022-08-17T14:32:51.717Z,100967.84
2022-08-17T14:35:19.295Z,100957.91
2022-08-17T14:37:45.754Z,100963.19
2022-08-17T14:40:15.903Z,100961.50
2022-08-17T14:42:44.514Z,100966.59
2022-08-17T14:45:29.839Z,100964.91
2022-08-17T14:48:04.505Z,100956.44
2022-08-17T14:50:32.042Z,100953.91
2022-08-17T14:53:03.774Z,100942.50
2022-08-17T14:55:31.040Z,100948.59
2022-08-17T14:57:59.037Z,100950.13
2022-08-17T15:00:26.704Z,100948.44
2022-08-17T15:02:57.883Z,100944.63
2022-08-17T15:05:27.566Z,100942.94
2022-08-17T15:07:54.460Z,100946.53
2022-08-17T15:10:21.101Z,100959.41
2022-08-17T15:12:48.077Z,100955.59
2022-08-17T15:15:16.955Z,100956.44
2022-08-17T15:17:45.946Z,100950.13
2022-08-17T15:20:19.345Z,100947.38
2022-08-17T15:22:49.521Z,100952.03
2022-08-17T15:25:19.595Z,100950.13
2022-08-17T15:27:46.255Z,100952.88
2022-08-17T15:30:13.227Z,100949.28
2022-08-17T15:32:50.695Z,100955.78
2022-08-17T15:35:19.364Z,100952.19
2022-08-17T15:37:54.836Z,100954.94
2022-08-17T15:40:21.307Z,100955.34
2022-08-17T15:42:47.811Z,100945.41
2022-08-17T15:45:16.469Z,100952.59
2022-08-17T15:47:43.271Z,100954.03
2022-08-17T15:50:10.764Z,100959.53
2022-08-17T15:52:40.282Z,100948.94
2022-08-17T15:55:11.080Z,100963.34
2022-08-17T15:57:40.636Z,100963.53
2022-08-17T16:00:09.403Z,100965.03
2022-08-17T16:03:45.756Z,100955.72
2022-08-17T16:05:28.453Z,100953.47
2022-08-17T16:07:59.500Z,100952.59
2022-08-17T16:10:34.163Z,100957.91
2022-08-17T16:13:02.030Z,100953.03
2022-08-17T16:15:30.918Z,100952.59
2022-08-17T16:17:57.618Z,100950.91
2022-08-17T16:20:27.231Z,100950.91
2022-08-17T16:22:55.780Z,100956.00
2022-08-17T16:25:52.486Z,100964.25
2022-08-17T16:28:16.000Z,100969.72
2022-08-17T16:30:42.850Z,100972.88
2022-08-17T16:34:15.805Z,100972.88
2022-08-17T16:36:34.373Z,100969.53
2022-08-17T16:39:01.431Z,100980.72
2022-08-17T16:41:39.980Z,100977.97
2022-08-17T16:44:06.488Z,100965.28
2022-08-17T16:46:33.488Z,100957.06
2022-08-17T16:49:02.827Z,100961.50
2022-08-17T16:51:29.334Z,100966.16
2022-08-17T16:53:59.230Z,100968.03
2022-08-17T16:56:26.315Z,100968.03
2022-08-17T16:58:53.541Z,100967.38
2022-08-17T17:01:21.340Z,100977.53
2022-08-17T17:03:57.686Z,100983.84
2022-08-17T17:06:40.124Z,100977.69
2022-08-17T17:09:12.089Z,100978.19
2022-08-17T17:11:44.725Z,100977.31
2022-08-17T17:14:20.311Z,100971.19
2022-08-17T17:17:01.617Z,100973.09
2022-08-17T17:19:38.302Z,100982.16
2022-08-17T17:22:20.203Z,100982.16
2022-08-17T17:25:13.674Z,100978.38
2022-08-17T17:28:15.918Z,100970.13
2022-08-17T17:30:56.731Z,100972.88
2022-08-17T17:33:40.473Z,100974.31
2022-08-17T17:36:24.580Z,100981.91
2022-08-17T17:39:36.197Z,100982.94
2022-08-17T17:42:07.597Z,100978.75
2022-08-17T17:44:37.959Z,100988.06
2022-08-17T17:47:05.283Z,100982.56
2022-08-17T17:49:40.157Z,100991.44
2022-08-17T17:52:20.964Z,100991.44
2022-08-17T17:55:08.936Z,100990.41
2022-08-17T17:57:35.387Z,100994.84
2022-08-17T18:00:08.333Z,100996.06
2022-08-17T18:02:57.185Z,100998.81
2022-08-17T18:05:57.233Z,101010.03
2022-08-17T18:08:36.083Z,101011.06
2022-08-17T18:11:36.190Z,101015.06
2022-08-17T18:14:47.311Z,101016.97
2022-08-17T18:17:14.521Z,101016.56
2022-08-17T18:19:41.484Z,101025.44
2022-08-17T18:22:14.407Z,101027.13
2022-08-17T18:24:45.869Z,101026.28
2022-08-17T18:27:32.737Z,101030.75
2022-08-17T18:30:08.621Z,101032.22
2022-08-17T18:32:44.372Z,101036.69
2022-08-17T18:35:10.757Z,101025.06
2022-08-17T18:37:47.491Z,101023.34
2022-08-17T18:40:16.986Z,101014.28
2022-08-17T18:43:08.974Z,101020.78
2022-08-17T18:45:51.457Z,101018.88
2022-08-17T18:48:20.507Z,101020.63
2022-08-17T18:50:47.803Z,101018.88
2022-08-17T18:53:33.386Z,101013.81
2022-08-17T18:56:27.047Z,101017.41
2022-08-17T18:59:02.557Z,101029.25
2022-08-17T19:01:58.202Z,101031.31
2022-08-17T19:04:35.186Z,101042.97
2022-08-17T19:07:10.926Z,101047.63
2022-08-17T19:09:43.995Z,101045.06
2022-08-17T19:12:27.126Z,101035.97
2022-08-17T19:14:56.329Z,101042.97
2022-08-17T19:17:32.337Z,101049.50
2022-08-17T19:20:07.093Z,101053.28
2022-08-17T19:23:07.934Z,101053.50
2022-08-17T19:25:40.343Z,101061.53
2022-08-17T19:28:22.232Z,101052.66
2022-08-17T19:30:55.394Z,101053.28
2022-08-17T19:33:22.289Z,101061.53
2022-08-17T19:36:21.519Z,101051.78
2022-08-17T19:39:00.270Z,101062.75
2022-08-17T19:41:32.466Z,101063.63
2022-08-17T19:44:11.268Z,101069.13
2022-08-17T19:47:01.760Z,101065.72
2022-08-17T19:49:46.595Z,101067.41
2022-08-17T19:52:24.088Z,101066.56
2022-08-17T19:55:04.567Z,101062.97
2022-08-17T19:57:43.843Z,101064.66
2022-08-17T20:00:19.040Z,101065.72
2022-08-17T20:03:07.973Z,101066.78
2022-08-17T20:06:11.031Z,101069.50
2022-08-17T20:08:39.218Z,101065.91
2022-08-17T20:11:18.507Z,101070.53
2022-08-17T20:14:03.173Z,101072.44
2022-08-17T20:16:33.073Z,101075.00
2022-08-17T20:19:31.046Z,101079.81
2022-08-17T20:22:06.178Z,101085.13
2022-08-17T20:24:40.708Z,101071.59
2022-08-17T20:27:29.476Z,101070.75
2022-08-17T20:30:06.864Z,101079.66
2022-08-17T20:32:38.195Z,101084.25
2022-08-17T20:35:17.632Z,101084.47
2022-08-17T20:37:59.712Z,101075.38
2022-08-17T20:40:30.634Z,101074.53
2022-08-17T20:42:58.307Z,101078.13
2022-08-17T20:45:26.093Z,101078.13
2022-08-17T20:48:36.083Z,101071.97
2022-08-17T20:50:57.437Z,101077.47
2022-08-17T20:53:53.453Z,101071.34
2022-08-17T20:56:44.894Z,101070.28
2022-08-17T20:59:20.507Z,101055.50
2022-08-17T21:02:06.649Z,101056.94
2022-08-17T21:04:49.708Z,101047.47
2022-08-17T21:07:30.291Z,101060.34
2022-08-17T21:10:21.729Z,101061.38
2022-08-17T21:12:53.279Z,101072.75
2022-08-17T21:15:22.590Z,101065.94
2022-08-17T21:18:06.576Z,101061.69
2022-08-17T21:20:41.921Z,101065.69
2022-08-17T21:23:41.053Z,101073.25
2022-08-17T21:26:29.674Z,101065.69
2022-08-17T21:29:30.831Z,101062.94
2022-08-17T21:31:59.076Z,101067.97
2022-08-17T21:34:30.556Z,101071.56
2022-08-17T21:37:19.739Z,101079.13
2022-08-17T21:39:51.883Z,101083.56
2022-08-17T21:42:24.985Z,101085.69
2022-08-17T21:44:57.912Z,101086.69
2022-08-17T21:47:27.972Z,101092.19
2022-08-17T21:49:56.143Z,101085.00
2022-08-17T21:52:26.788Z,101088.81
2022-08-17T21:54:57.511Z,101085.22
2022-08-17T21:57:27.658Z,101089.44
2022-08-17T21:59:58.015Z,101089.44
2022-08-17T22:02:43.275Z,101090.69
2022-08-17T22:05:14.003Z,101079.50
2022-08-17T22:07:47.710Z,101080.75
2022-08-17T22:10:32.685Z,101090.69
2022-08-17T22:13:17.301Z,101096.19
2022-08-17T22:16:15.687Z,101097.03
2022-08-17T22:18:57.516Z,101101.00
2022-08-17T22:21:24.601Z,101106.69
2022-08-17T22:24:15.291Z,101109.22
2022-08-17T22:27:02.838Z,101102.91
2022-08-17T22:29:58.219Z,101104.81
2022-08-17T22:32:34.347Z,101107.72
2022-08-17T22:35:33.108Z,101106.03
2022-08-17T22:38:17.933Z,101103.63
2022-08-17T22:40:53.781Z,101103.63
2022-08-17T22:43:25.949Z,101102.44
2022-08-17T22:45:55.533Z,101103.50
2022-08-17T22:48:27.193Z,101100.53
2022-08-17T22:51:13.843Z,101096.44
2022-08-17T22:54:34.210Z,101103.50
2022-08-17T22:57:23.503Z,101102.78
2022-08-17T22:59:53.886Z,101102.63
2022-08-17T23:02:29.217Z,101099.38
2022-08-17T23:05:16.676Z,101094.56
2022-08-17T23:07:45.536Z,101100.88
2022-08-17T23:10:13.829Z,101096.44
2022-08-17T23:12:40.605Z,101108.09
2022-08-17T23:15:16.287Z,101109.13
2022-08-17T23:17:43.253Z,101103.28
2022-08-17T23:20:13.915Z,101108.59
2022-08-17T23:22:52.208Z,101101.38
2022-08-17T23:25:27.964Z,101102.06
2022-08-17T23:27:55.683Z,101101.59
2022-08-17T23:30:25.329Z,101103.00
2022-08-17T23:32:54.325Z,101110.34
2022-08-17T23:35:39.917Z,101095.78
2022-08-17T23:38:12.286Z,101093.03
2022-08-17T23:40:40.160Z,101091.34
2022-08-17T23:43:23.732Z,101105.53
2022-08-17T23:45:53.197Z,101103.00
2022-08-17T23:48:28.432Z,101099.38
2022-08-17T23:51:14.712Z,101113.28
2022-08-17T23:53:47.215Z,101111.41
2022-08-17T23:56:14.606Z,101110.72
2022-08-17T23:58:42.621Z,101102.31
